Allakaket, Alaska
Current Conditions -  °F | °C
As of 9:53 AM on Friday 24 Oct 2014 (Local Time) from PABT Reporting Station
Light Snow Light Snow  
Wind Chill: -11°   Ceiling: 4100
Heat Index: -11°   Visibility: 10mi
Dew Point: -13°   Wind: 0mph
Humidity: 88%   Direction: NA
Pressure: 29.79"   Gusts: NA
Location:  66.57°N, 152.65°W
Report Text: PABT 241753Z 00000KT 10SM -SN FEW024 FEW033 OVC041 M11/M13 A2979 RMK AO2 SLP107 OVC IS THIN 60000 4/002 T11111128 11072 21111 53004
Loading
Personal Weather Stations






























Interactive Weather Map
Tropical Storm Tracking
New forecast layout! Learn more

10-Day Weather Forecast

Advertisements
Track Severe Weather on mobile